createdAt,value
2023-05-22T00:01:41.292Z,3.80
2023-05-22T00:04:43.891Z,4.60
2023-05-22T00:08:36.580Z,4.70
2023-05-22T00:11:22.871Z,3.50
2023-05-22T00:13:52.770Z,4.30
2023-05-22T00:16:22.778Z,4.20
2023-05-22T00:18:52.790Z,4.60
2023-05-22T00:21:28.263Z,4.20
2023-05-22T00:24:01.681Z,4.70
2023-05-22T00:26:37.412Z,4.40
2023-05-22T00:29:06.089Z,5.90
2023-05-22T00:31:35.319Z,4.20
2023-05-22T00:34:09.775Z,4.10
2023-05-22T00:36:39.063Z,3.80
2023-05-22T00:39:09.726Z,4.60
2023-05-22T00:41:42.681Z,4.80
2023-05-22T00:44:17.305Z,4.40
2023-05-22T00:46:48.906Z,4.50
2023-05-22T00:49:18.391Z,4.50
2023-05-22T00:51:47.463Z,4.60
2023-05-22T00:54:17.916Z,4.40
2023-05-22T00:57:00.713Z,4.40
2023-05-22T00:59:45.045Z,4.70
2023-05-22T01:02:20.751Z,4.30
2023-05-22T01:04:49.365Z,4.00
2023-05-22T01:07:18.194Z,5.40
2023-05-22T01:09:48.525Z,3.90
2023-05-22T01:12:45.844Z,4.40
2023-05-22T01:15:26.718Z,4.60
2023-05-22T01:18:32.220Z,4.90
2023-05-22T01:21:18.551Z,5.10
2023-05-22T01:24:08.452Z,4.80
2023-05-22T01:27:15.121Z,4.60
2023-05-22T01:30:39.382Z,4.50
2023-05-22T01:33:10.033Z,4.40
2023-05-22T01:35:48.365Z,3.80
2023-05-22T01:38:17.260Z,3.90
2023-05-22T01:40:47.110Z,4.80
2023-05-22T01:43:16.921Z,4.50
2023-05-22T01:45:52.233Z,4.50
2023-05-22T01:48:23.627Z,4.70
2023-05-22T01:50:56.350Z,6.00
2023-05-22T01:53:33.927Z,5.30
2023-05-22T01:56:38.525Z,5.00
2023-05-22T01:59:42.184Z,5.20
2023-05-22T02:02:18.004Z,4.90
2023-05-22T02:05:00.153Z,4.00
2023-05-22T02:07:33.554Z,4.90
2023-05-22T02:10:04.417Z,5.20
2023-05-22T02:12:34.163Z,5.40
2023-05-22T02:15:09.321Z,5.80
2023-05-22T02:17:41.788Z,4.70
2023-05-22T02:20:15.433Z,6.60
2023-05-22T02:22:47.261Z,4.80
2023-05-22T02:25:18.634Z,5.00
2023-05-22T02:27:49.783Z,5.80
2023-05-22T02:30:18.577Z,5.30
2023-05-22T02:32:50.007Z,6.80
2023-05-22T02:35:18.521Z,5.80
2023-05-22T02:37:51.235Z,6.10
2023-05-22T02:40:20.089Z,5.10
2023-05-22T02:42:50.575Z,5.20
2023-05-22T02:45:19.768Z,4.80
2023-05-22T02:47:48.330Z,5.00
2023-05-22T02:50:17.827Z,6.80
2023-05-22T02:52:46.573Z,5.60
2023-05-22T02:55:17.358Z,5.20
2023-05-22T02:57:46.767Z,5.60
2023-05-22T03:00:16.090Z,5.20
2023-05-22T03:02:45.609Z,6.30
2023-05-22T03:05:18.200Z,6.70
2023-05-22T03:07:49.346Z,5.40
2023-05-22T03:10:20.449Z,5.70
2023-05-22T03:12:48.931Z,5.90
2023-05-22T03:15:19.291Z,5.60
2023-05-22T03:17:49.153Z,6.10
2023-05-22T03:20:17.999Z,5.30
2023-05-22T03:22:48.328Z,5.60
2023-05-22T03:25:17.085Z,5.70
2023-05-22T03:27:45.617Z,5.20
2023-05-22T03:30:15.254Z,6.00
2023-05-22T03:32:47.126Z,5.80
2023-05-22T03:35:19.777Z,6.20
2023-05-22T03:37:48.277Z,5.80
2023-05-22T03:40:17.391Z,5.60
2023-05-22T03:42:46.104Z,5.10
2023-05-22T03:45:14.726Z,5.80
2023-05-22T03:47:43.308Z,5.10
2023-05-22T03:50:12.078Z,5.90
2023-05-22T03:52:40.498Z,6.10
2023-05-22T03:55:09.222Z,6.20
2023-05-22T03:57:37.668Z,7.40
2023-05-22T04:00:10.003Z,6.80
2023-05-22T04:02:45.436Z,5.50
2023-05-22T04:05:20.092Z,6.00
2023-05-22T04:07:52.109Z,6.90
2023-05-22T04:10:24.209Z,6.20
2023-05-22T04:12:52.706Z,6.00
2023-05-22T04:15:22.199Z,5.90
2023-05-22T04:17:50.729Z,6.50
2023-05-22T04:20:19.215Z,6.70
2023-05-22T04:22:49.143Z,7.20
2023-05-22T04:25:17.975Z,8.00
2023-05-22T04:27:48.248Z,8.10
2023-05-22T04:30:18.575Z,6.00
2023-05-22T04:32:47.595Z,8.50
2023-05-22T04:35:18.847Z,7.10
2023-05-22T04:37:47.283Z,6.50
2023-05-22T04:40:15.793Z,7.30
2023-05-22T04:42:44.718Z,7.50
2023-05-22T04:45:14.315Z,8.60
2023-05-22T04:47:43.025Z,7.30
2023-05-22T04:50:12.253Z,6.70
2023-05-22T04:52:41.040Z,7.60
2023-05-22T04:55:12.303Z,8.90
2023-05-22T04:57:41.450Z,8.00
2023-05-22T05:00:11.089Z,8.10
2023-05-22T05:02:41.451Z,6.80
2023-05-22T05:05:10.216Z,7.70
2023-05-22T05:07:40.344Z,6.60
2023-05-22T05:10:09.969Z,7.40
2023-05-22T05:12:38.830Z,6.10
2023-05-22T05:15:15.185Z,5.80
2023-05-22T05:17:45.688Z,5.80
2023-05-22T05:20:14.780Z,5.70
2023-05-22T05:22:46.534Z,5.30
2023-05-22T05:25:20.797Z,5.50
2023-05-22T05:27:53.218Z,6.00
2023-05-22T05:30:37.922Z,5.70
2023-05-22T05:33:20.019Z,7.00
2023-05-22T05:36:04.298Z,6.30
2023-05-22T05:38:33.848Z,6.10
2023-05-22T05:41:02.432Z,7.30
2023-05-22T05:43:31.485Z,6.00
2023-05-22T05:46:06.252Z,6.80
2023-05-22T05:48:39.556Z,6.00
2023-05-22T05:51:12.328Z,5.80
2023-05-22T05:53:44.002Z,6.10
2023-05-22T05:56:12.912Z,5.70
2023-05-22T05:58:45.278Z,6.00
2023-05-22T06:01:46.104Z,4.90
2023-05-22T06:04:20.278Z,5.60
2023-05-22T06:06:49.919Z,6.60
2023-05-22T06:09:32.569Z,5.80
2023-05-22T06:12:24.815Z,5.60
2023-05-22T06:14:53.585Z,5.60
2023-05-22T06:17:22.111Z,5.90
2023-05-22T06:19:51.199Z,5.30
2023-05-22T06:22:19.912Z,6.10
2023-05-22T06:24:49.981Z,5.90
2023-05-22T06:27:24.685Z,5.80
2023-05-22T06:29:55.266Z,7.00
2023-05-22T06:32:25.792Z,8.70
2023-05-22T06:34:55.022Z,6.10
2023-05-22T06:37:23.739Z,6.20
2023-05-22T06:39:52.365Z,5.70
2023-05-22T06:42:29.749Z,6.00
2023-05-22T06:45:20.223Z,6.50
2023-05-22T06:48:05.185Z,5.70
2023-05-22T06:50:36.298Z,5.70
2023-05-22T06:53:05.388Z,6.00
2023-05-22T06:55:35.956Z,6.40
2023-05-22T06:58:12.574Z,6.20
2023-05-22T07:00:41.556Z,5.40
2023-05-22T07:03:16.275Z,6.00
2023-05-22T07:06:06.511Z,5.40
2023-05-22T07:08:35.429Z,6.20
2023-05-22T07:11:07.156Z,6.00
2023-05-22T07:13:39.307Z,5.40
2023-05-22T07:16:10.137Z,6.30
2023-05-22T07:18:42.642Z,6.30
2023-05-22T07:21:14.371Z,6.50
2023-05-22T07:23:47.492Z,6.10
2023-05-22T07:26:21.487Z,6.20
2023-05-22T07:28:58.394Z,5.90
2023-05-22T07:31:28.573Z,5.70
2023-05-22T07:33:58.399Z,5.10
2023-05-22T07:36:35.092Z,7.30
2023-05-22T07:39:05.649Z,5.30
2023-05-22T07:41:37.916Z,5.40
2023-05-22T07:44:08.178Z,5.90
2023-05-22T07:46:43.555Z,5.70
2023-05-22T07:49:20.025Z,6.40
2023-05-22T07:51:49.355Z,5.90
2023-05-22T07:54:18.675Z,5.10
2023-05-22T07:56:50.811Z,5.70
2023-05-22T07:59:28.096Z,6.50
2023-05-22T08:01:58.716Z,5.60
2023-05-22T08:04:30.343Z,4.30
2023-05-22T08:07:02.913Z,4.70
2023-05-22T08:09:32.026Z,5.10
2023-05-22T08:12:01.280Z,7.00
2023-05-22T08:14:30.992Z,4.70
2023-05-22T08:17:00.496Z,4.90
2023-05-22T08:19:29.085Z,3.80
2023-05-22T08:21:58.545Z,4.00
2023-05-22T08:24:28.894Z,4.60
2023-05-22T08:27:01.214Z,5.10
2023-05-22T08:29:29.967Z,5.40
2023-05-22T08:31:58.944Z,4.30
2023-05-22T08:34:28.642Z,5.00
2023-05-22T08:36:57.307Z,4.50
2023-05-22T08:39:25.884Z,5.20
2023-05-22T08:41:54.860Z,5.10
2023-05-22T08:44:26.914Z,4.80
2023-05-22T08:47:00.598Z,5.20
2023-05-22T08:49:30.967Z,4.30
2023-05-22T08:52:06.259Z,5.00
2023-05-22T08:54:39.598Z,5.20
2023-05-22T08:57:08.417Z,4.30
2023-05-22T08:59:41.173Z,5.30
2023-05-22T09:02:13.143Z,4.80
2023-05-22T09:04:42.141Z,4.90
2023-05-22T09:07:10.857Z,4.30
2023-05-22T09:09:39.806Z,4.70
2023-05-22T09:12:10.554Z,4.40
2023-05-22T09:14:40.669Z,4.70
2023-05-22T09:17:12.051Z,3.90
2023-05-22T09:19:46.177Z,4.10
2023-05-22T09:22:14.780Z,4.20
2023-05-22T09:24:45.053Z,5.40
2023-05-22T09:27:13.596Z,4.70
2023-05-22T09:29:52.950Z,4.20
2023-05-22T09:32:21.982Z,4.10
2023-05-22T09:34:51.508Z,5.90
2023-05-22T09:37:22.404Z,4.30
2023-05-22T09:39:53.227Z,3.60
2023-05-22T09:42:24.657Z,3.50
2023-05-22T09:44:53.724Z,4.10
2023-05-22T09:47:22.791Z,3.80
2023-05-22T09:49:51.213Z,4.20
2023-05-22T09:52:22.114Z,4.20
2023-05-22T09:54:55.707Z,4.30
2023-05-22T09:57:26.487Z,3.90
2023-05-22T09:59:59.064Z,4.00
2023-05-22T10:02:29.158Z,4.00
2023-05-22T10:05:01.177Z,3.60
2023-05-22T10:07:36.591Z,4.20
2023-05-22T10:10:11.470Z,5.50
2023-05-22T10:12:48.489Z,4.90
2023-05-22T10:15:18.892Z,3.10
2023-05-22T10:17:48.488Z,4.10
2023-05-22T10:20:17.452Z,4.10
2023-05-22T10:22:49.204Z,3.60
2023-05-22T10:25:24.110Z,3.80
2023-05-22T10:27:54.519Z,4.40
2023-05-22T10:30:36.858Z,4.80
2023-05-22T10:36:14.367Z,4.60
2023-05-22T10:39:01.772Z,4.40
2023-05-22T10:41:31.291Z,3.60
2023-05-22T10:44:03.568Z,4.20
2023-05-22T10:46:36.808Z,5.00
2023-05-22T10:49:05.453Z,4.00
2023-05-22T10:51:34.567Z,4.70
2023-05-22T10:54:05.818Z,4.80
2023-05-22T10:56:36.213Z,4.60
2023-05-22T10:59:08.527Z,4.50
2023-05-22T11:01:40.187Z,4.40
2023-05-22T11:04:20.207Z,3.50
2023-05-22T11:07:06.967Z,4.70
2023-05-22T11:09:48.449Z,3.60
2023-05-22T11:12:28.844Z,4.80
2023-05-22T11:15:00.364Z,4.60
2023-05-22T11:17:30.850Z,5.10
2023-05-22T11:20:08.300Z,4.50
2023-05-22T11:22:38.202Z,4.40
2023-05-22T11:25:12.126Z,4.30
2023-05-22T11:27:42.018Z,5.40
2023-05-22T11:30:11.993Z,3.80
2023-05-22T11:32:44.599Z,4.00
2023-05-22T11:35:21.079Z,3.80
2023-05-22T11:37:51.501Z,4.50
2023-05-22T11:40:27.370Z,4.90
2023-05-22T11:42:57.103Z,5.10
2023-05-22T11:45:26.135Z,4.40
2023-05-22T11:47:54.888Z,4.10
2023-05-22T11:50:40.056Z,3.60
2023-05-22T11:53:12.787Z,3.50
2023-05-22T11:55:43.134Z,4.10
2023-05-22T11:58:11.602Z,7.30
2023-05-22T12:00:40.386Z,3.80
2023-05-22T12:03:09.254Z,5.30
2023-05-22T12:05:38.320Z,5.70
2023-05-22T12:08:07.112Z,3.00
2023-05-22T12:10:53.489Z,3.60
2023-05-22T12:13:26.582Z,4.50
2023-05-22T12:16:00.448Z,3.90
2023-05-22T12:18:37.903Z,4.40
2023-05-22T12:21:11.217Z,4.40
2023-05-22T12:23:50.258Z,4.60
2023-05-22T12:26:19.734Z,4.40
2023-05-22T12:28:48.280Z,4.20
2023-05-22T12:31:23.377Z,4.90
2023-05-22T12:33:56.079Z,4.10
2023-05-22T12:36:44.151Z,4.80
2023-05-22T12:39:18.075Z,4.50
2023-05-22T12:41:46.592Z,4.00
2023-05-22T12:44:16.655Z,5.00
2023-05-22T12:46:45.205Z,4.60
2023-05-22T12:49:13.940Z,3.70
2023-05-22T12:51:42.262Z,3.90
2023-05-22T12:54:10.861Z,4.20
2023-05-22T12:56:39.269Z,5.00
2023-05-22T12:59:07.709Z,3.60
2023-05-22T13:01:36.192Z,4.30
2023-05-22T13:04:04.623Z,4.90
2023-05-22T13:06:33.104Z,3.60
2023-05-22T13:09:01.526Z,3.80
2023-05-22T13:11:30.293Z,3.50
2023-05-22T13:13:58.503Z,3.70
2023-05-22T13:16:26.943Z,3.50
2023-05-22T13:18:55.412Z,5.70
2023-05-22T13:21:26.337Z,5.80
2023-05-22T13:23:55.965Z,4.20
2023-05-22T13:26:24.503Z,4.50
2023-05-22T13:28:53.181Z,4.20
2023-05-22T13:31:21.564Z,3.80
2023-05-22T13:33:50.417Z,4.60
2023-05-22T13:36:18.804Z,4.60
2023-05-22T13:38:47.341Z,4.50
2023-05-22T13:41:15.935Z,4.10
2023-05-22T13:43:44.268Z,4.30
2023-05-22T13:46:12.809Z,4.50
2023-05-22T13:48:41.427Z,4.00
2023-05-22T13:51:09.803Z,3.80
2023-05-22T13:53:38.657Z,4.00
2023-05-22T13:56:06.988Z,3.80
2023-05-22T13:58:35.418Z,5.80
2023-05-22T14:01:03.847Z,4.00
2023-05-22T14:03:32.275Z,4.00
2023-05-22T14:06:00.774Z,5.50
2023-05-22T14:08:29.177Z,3.80
2023-05-22T14:10:57.688Z,4.90
2023-05-22T14:13:26.249Z,4.00
2023-05-22T14:15:54.786Z,4.10
2023-05-22T14:18:23.218Z,3.80
2023-05-22T14:20:51.671Z,5.10
2023-05-22T14:23:20.114Z,4.40
2023-05-22T14:25:48.812Z,4.40
2023-05-22T14:28:17.334Z,4.10
2023-05-22T14:30:46.290Z,3.90
2023-05-22T14:33:19.938Z,4.30
2023-05-22T14:35:51.449Z,5.90
2023-05-22T14:38:19.791Z,3.80
2023-05-22T14:40:48.099Z,4.00
2023-05-22T14:43:16.391Z,4.20
2023-05-22T14:45:44.918Z,4.60
2023-05-22T14:48:13.434Z,3.90
2023-05-22T14:50:41.701Z,5.70
2023-05-22T14:53:10.092Z,5.30
2023-05-22T14:55:38.628Z,4.70
2023-05-22T14:58:07.435Z,4.60
2023-05-22T15:00:36.176Z,4.40
2023-05-22T15:03:04.595Z,5.40
2023-05-22T15:05:33.219Z,5.60
2023-05-22T15:08:01.617Z,4.70
2023-05-22T15:10:30.053Z,4.90
2023-05-22T15:12:58.492Z,4.00
2023-05-22T15:15:27.110Z,5.10
2023-05-22T15:17:55.969Z,4.80
2023-05-22T15:20:24.294Z,4.80
2023-05-22T15:22:52.807Z,4.20
2023-05-22T15:25:21.530Z,5.70
2023-05-22T15:27:49.808Z,4.40
2023-05-22T15:30:19.127Z,4.60
2023-05-22T15:32:49.301Z,4.20
2023-05-22T15:35:17.652Z,4.80
2023-05-22T15:37:46.684Z,4.30
2023-05-22T15:40:22.806Z,4.50
2023-05-22T15:42:54.969Z,4.20
2023-05-22T15:45:23.591Z,5.30
2023-05-22T15:47:52.033Z,4.60
2023-05-22T15:50:20.566Z,4.10
2023-05-22T15:52:48.938Z,4.80
2023-05-22T15:55:17.207Z,4.60
2023-05-22T15:57:45.660Z,5.40
2023-05-22T16:00:15.231Z,4.50
2023-05-22T16:02:45.013Z,4.80
2023-05-22T16:05:13.478Z,4.40
2023-05-22T16:07:43.234Z,4.30
2023-05-22T16:10:12.271Z,9.30
2023-05-22T16:12:41.695Z,4.60
2023-05-22T16:15:10.931Z,4.70
2023-05-22T16:17:39.729Z,5.20
2023-05-22T16:20:09.207Z,4.80
2023-05-22T16:22:48.283Z,4.80
2023-05-22T16:25:18.331Z,4.20
2023-05-22T16:27:46.924Z,5.70
2023-05-22T16:30:19.372Z,5.00
2023-05-22T16:32:48.814Z,4.70
2023-05-22T16:35:19.148Z,4.90
2023-05-22T16:37:47.661Z,4.60
2023-05-22T16:40:17.744Z,4.50
2023-05-22T16:42:46.155Z,4.60
2023-05-22T16:45:14.638Z,5.80
2023-05-22T16:47:43.189Z,5.20
2023-05-22T16:50:11.694Z,4.20
2023-05-22T16:52:40.359Z,4.80
2023-05-22T16:55:09.399Z,5.50
2023-05-22T16:57:39.329Z,4.60
2023-05-22T17:00:11.165Z,5.00
2023-05-22T17:02:40.625Z,4.20
2023-05-22T17:05:09.473Z,4.60
2023-05-22T17:07:38.062Z,4.50
2023-05-22T17:10:07.414Z,5.70
2023-05-22T17:12:35.757Z,4.50
2023-05-22T17:15:05.524Z,4.40
2023-05-22T17:17:34.054Z,3.70
2023-05-22T17:20:02.647Z,4.40
2023-05-22T17:22:31.161Z,4.80
2023-05-22T17:24:59.620Z,4.80
2023-05-22T17:27:36.258Z,5.20
2023-05-22T17:30:08.008Z,4.20
2023-05-22T17:32:36.931Z,4.40
2023-05-22T17:35:07.130Z,4.60
2023-05-22T17:37:35.849Z,4.20
2023-05-22T17:40:04.954Z,4.90
2023-05-22T17:42:33.541Z,4.90
2023-05-22T17:45:02.021Z,4.10
2023-05-22T17:47:30.575Z,4.70
2023-05-22T17:49:59.046Z,5.00
2023-05-22T17:52:27.776Z,4.90
2023-05-22T17:54:57.095Z,5.10
2023-05-22T17:57:26.138Z,4.90
2023-05-22T17:59:54.773Z,4.70
2023-05-22T18:02:23.828Z,4.80
2023-05-22T18:04:52.256Z,5.40
2023-05-22T18:07:20.750Z,4.30
2023-05-22T18:09:49.062Z,5.00
2023-05-22T18:12:31.095Z,4.20
2023-05-22T18:15:00.641Z,5.10
2023-05-22T18:17:29.033Z,6.00
2023-05-22T18:19:57.557Z,5.50
2023-05-22T18:22:32.366Z,5.10
2023-05-22T18:25:01.558Z,6.70
2023-05-22T18:27:31.608Z,5.90
2023-05-22T18:30:00.054Z,4.70
2023-05-22T18:32:28.635Z,5.50
2023-05-22T18:34:58.676Z,5.20
2023-05-22T18:37:27.127Z,6.20
2023-05-22T18:39:55.751Z,6.40
2023-05-22T18:42:24.601Z,6.30
2023-05-22T18:44:53.320Z,5.70
2023-05-22T18:47:21.946Z,5.50
2023-05-22T18:49:50.710Z,4.60
2023-05-22T18:56:09.303Z,6.20
2023-05-22T18:58:41.613Z,6.50
2023-05-22T19:01:10.135Z,6.70
2023-05-22T19:03:38.707Z,7.10
2023-05-22T19:06:07.269Z,5.90
2023-05-22T19:08:35.829Z,5.50
2023-05-22T19:11:04.229Z,5.80
2023-05-22T19:13:32.686Z,5.60
2023-05-22T19:16:01.254Z,5.80
2023-05-22T19:18:32.771Z,5.50
2023-05-22T19:21:02.451Z,5.70
2023-05-22T19:23:31.235Z,5.40
2023-05-22T19:26:00.841Z,5.90
2023-05-22T19:28:31.941Z,5.70
2023-05-22T19:31:03.771Z,7.20
2023-05-22T19:33:32.449Z,6.20
2023-05-22T19:36:06.690Z,7.40
2023-05-22T19:38:35.188Z,7.80
2023-05-22T19:41:04.126Z,7.60
2023-05-22T19:43:32.933Z,8.20
2023-05-22T19:46:01.558Z,7.20
2023-05-22T19:48:31.708Z,7.30
2023-05-22T19:51:00.179Z,6.80
2023-05-22T19:53:28.931Z,6.40
2023-05-22T19:55:57.537Z,6.70
2023-05-22T19:58:26.445Z,7.20
2023-05-22T20:00:55.065Z,7.70
2023-05-22T20:03:24.625Z,6.70
2023-05-22T20:05:53.850Z,7.40
2023-05-22T20:08:23.450Z,7.00
2023-05-22T20:10:52.128Z,8.00
2023-05-22T20:13:20.665Z,7.60
2023-05-22T20:15:51.445Z,7.50
2023-05-22T20:18:22.520Z,8.00
2023-05-22T20:20:52.211Z,9.20
2023-05-22T20:23:20.775Z,6.50
2023-05-22T20:25:49.584Z,6.90
2023-05-22T20:28:18.441Z,6.80
2023-05-22T20:30:47.229Z,8.10
2023-05-22T20:33:17.869Z,7.70
2023-05-22T20:35:49.840Z,7.70
2023-05-22T20:38:20.290Z,9.30
2023-05-22T20:40:48.744Z,8.90
2023-05-22T20:46:55.606Z,7.50
2023-05-22T20:49:25.133Z,7.40
2023-05-22T20:51:54.601Z,7.50
2023-05-22T20:54:23.101Z,8.40
2023-05-22T20:56:53.002Z,8.90
2023-05-22T20:59:22.260Z,7.90
2023-05-22T21:01:50.831Z,7.90
2023-05-22T21:04:19.424Z,8.40
2023-05-22T21:06:48.211Z,8.80
2023-05-22T21:09:17.293Z,7.80
2023-05-22T21:11:45.749Z,8.70
2023-05-22T21:14:14.703Z,8.30
2023-05-22T21:16:43.274Z,7.20
2023-05-22T21:19:13.400Z,8.70
2023-05-22T21:21:41.960Z,7.30
2023-05-22T21:24:11.058Z,8.90
2023-05-22T21:26:39.632Z,8.10
2023-05-22T21:29:08.309Z,8.60
2023-05-22T21:31:36.995Z,7.50
2023-05-22T21:34:05.581Z,7.20
2023-05-22T21:36:36.756Z,7.50
2023-05-22T21:39:05.674Z,8.10
2023-05-22T21:41:34.246Z,9.30
2023-05-22T21:44:03.244Z,8.70
2023-05-22T21:46:32.260Z,9.00
2023-05-22T21:49:13.324Z,9.00
2023-05-22T21:52:01.291Z,9.50
2023-05-22T21:54:31.672Z,8.70
2023-05-22T21:58:03.921Z,8.30
2023-05-22T22:00:35.382Z,7.90
2023-05-22T22:03:05.221Z,8.70
2023-05-22T22:05:35.943Z,7.20
2023-05-22T22:08:06.694Z,8.40
2023-05-22T22:10:35.901Z,8.00
2023-05-22T22:13:05.723Z,7.10
2023-05-22T22:15:38.427Z,8.10
2023-05-22T22:18:22.182Z,9.30
2023-05-22T22:20:54.355Z,8.50
2023-05-22T22:23:23.108Z,8.90
2023-05-22T22:25:53.780Z,9.20
2023-05-22T22:28:22.894Z,7.90
2023-05-22T22:30:55.502Z,9.20
2023-05-22T22:33:24.993Z,7.70
2023-05-22T22:35:54.072Z,7.50
2023-05-22T22:38:22.650Z,8.70
2023-05-22T22:40:51.412Z,10.10
2023-05-22T22:43:20.444Z,8.30
2023-05-22T22:45:50.659Z,9.10
2023-05-22T22:48:22.573Z,8.30
2023-05-22T22:50:52.601Z,8.60
2023-05-22T22:53:20.959Z,7.10
2023-05-22T22:55:56.722Z,9.20
2023-05-22T22:58:26.135Z,7.60
2023-05-22T23:00:59.095Z,8.10
2023-05-22T23:03:28.233Z,7.50
2023-05-22T23:05:59.128Z,7.60
2023-05-22T23:08:28.733Z,6.90
2023-05-22T23:10:58.200Z,7.10
2023-05-22T23:13:26.689Z,7.60
2023-05-22T23:15:55.289Z,6.40
2023-05-22T23:18:23.891Z,6.60
2023-05-22T23:20:54.180Z,8.40
2023-05-22T23:23:23.794Z,7.90
2023-05-22T23:25:52.911Z,8.00
2023-05-22T23:28:21.409Z,7.20
2023-05-22T23:30:49.858Z,6.80
2023-05-22T23:33:18.224Z,9.60
2023-05-22T23:35:46.639Z,8.10
2023-05-22T23:38:16.211Z,7.40
2023-05-22T23:40:48.838Z,7.00
2023-05-22T23:43:20.648Z,8.00
2023-05-22T23:45:51.972Z,6.80
2023-05-22T23:48:21.585Z,7.50
2023-05-22T23:50:52.187Z,9.20
2023-05-22T23:53:22.741Z,7.30
2023-05-22T23:55:51.942Z,7.50
2023-05-22T23:58:21.056Z,6.50
